Weather at Torrey Pines Corporate Helistop

Public forecast

Using degrees Fahrenheit for public forecast. Weather courtesy of forecast.io.

Closest aviation weather report (METAR) to Torrey Pines Corporate Helistop

Closest report is Miramar Marine Corps Air Station - Mitscher Field, 5.6 nm (10.4 km) ESE.

2024/07/21 21:55 (retrieved 50 minutes ago)

KNKX 212155Z 27007KT 7SM FEW080 26/17 A2990 RMK AO2 SLP118 T02610172

Closest aviation forecast (TAF) to Torrey Pines Corporate Helistop

Forecast is more than 12 hours old.

Closest forecast is Miramar Marine Corps Air Station - Mitscher Field, 5.6 nm (10.4 km) ESE.

2024/07/20 12:19 Ammendment (retrieved 1 day ago)

TAF AMD KNKX 2012/2109 VRB02KT 0400 FG BKN011 QNH2990INS BECMG 2014/2016 VRB02KT 8000 BR BKN011 QNH2993INS FM201830 30010KT 9999 NSW SCT015 QNH2994INS BECMG 2100/2102 30008KT 9999 SCT015 QNH2988INS T16/2013Z T28/2021Z AMD 1159